AirNav   Textron
 
 880 users online  

71GA Piedmont Newton Hospital Heliport
Covington, Georgia, USA

GOING TO COVINGTON?


FAA INFORMATION EFFECTIVE 20 JULY 2017

Location

FAA Identifier: 71GA
Lat/Long: 33-36-06.4800N / 083-50-55.2500W
33-36.108000N / 083-50.920833W
33.6018000 / -83.8486806
(estimated)
Elevation: 772 ft. / 235 m (estimated)
Variation: 02W (1985)
From city: 1 mile NE of COVINGTON, GA
Time zone: UTC -4 (UTC -5 during Standard Time)
Zip code: 30014

Heliport Operations

Heliport use: Private use, MEDICAL
Activation date: 02/1988
Control tower: no
ARTCC: ATLANTA CENTER
FSS: MACON FLIGHT SERVICE STATION
Attendance: UNATNDD
Segmented circle: no
Lights: FOR PERIMETER LGTS CALL 404-787-7905.

Heliport Communications

UNICOM: 123.0
WX AWOS-3 at CVC (1.8 nm N): 118.725 (770-385-7057)
WX AWOS-3PT at D73 (13 nm NE): 120.825 (678-635-3668)

Nearby radio navigation aids

VOR radial/distance  VOR name  Freq  Var
PDKr131/27.8PEACHTREE VOR/DME116.6005W
ATLr098/29.3ATLANTA VORTAC116.9005W
AHNr232/33.4ATHENS VOR/DME109.6000E

 
NDB name  Hdg/Dist  Freq  Var  ID
ALCOVY246/3.737003WVOF ...- --- ..-.
MONROE220/10.239203WJNM .--- -. --
BARROW COUNTY218/23.840405WBMW -... -- .--
COMMERCE217/32.124406WDDA -.. -.. .-
FLOWERY BRANCH178/36.236503WFKV ..-. -.- ...-
PECAT066/36.731605WFFC ..-. ..-. -.-.
BULLDOG239/37.722103WBJT -... .--- -

Heliport Services

Runway Information

Helipad H1

Dimensions: 100 x 70 ft. / 30 x 21 m
Surface: turf
Runway edge lights: PERIMETER LGTS.
Latitude: 33-36.108000N
Longitude: 083-50.920833W
Elevation: 772.0 ft.
Traffic pattern: leftleft

Heliport Ownership and Management from official FAA records

Ownership: Privately-owned
Owner: PIEDMONT NEWTON HOSPITAL
5126 HOSPITAL DRIVE
COVINGTON, GA 30014
Phone 404-786-7053
Manager: JAMES F. WEADICK
5126 HOSPITAL DR.
COVINGTON, GA 30014
Phone 770-786-7053
TROY B BROOKS 770-385-4426

Additional Remarks

A52 75' TREES 60' S & 50' BLDG 100' E OF HELIPAD

Instrument Procedures

There are no published instrument procedures at 71GA.

Some nearby airports with instrument procedures:

KCVC - Covington Municipal Airport (2 nm N)
D73 - Monroe-Walton County Airport (13 nm NE)
52A - Madison Municipal Airport (19 nm E)
KLZU - Gwinnett County Airport-Briscoe Field (23 nm N)
KWDR - Barrow County Airport (25 nm N)
 
Loc | Ops | Rwys | IFR | FBO | Links
Com | Nav | Svcs | Stats | Notes


 
Area around 71GA (Piedmont Newton Hospital Heliport)
 
Road maps at: MapQuest Bing Google
 
Aerial photo
No photo
 
Sectional chart

 
Airport distance calculator
Flying to Piedmont Newton Hospital Heliport? Find the distance to fly.

From to 71GA

Sunrise and sunset
Times for 22-Jul-2017
 Local
(UTC-4)
 Zulu
(UTC)
Morning civil twilight06:1410:14
Sunrise06:4210:42
Sunset20:4200:42
Evening civil twilight21:1001:10

Current date and time
Zulu (UTC)  23-Jul-2017 00:13:55
Local (UTC-4)  22-Jul-2017 20:13:55
 
METAR
KCVC 
2nm N 
222355Z AUTO 00000KT 10SM CLR 29/23 A2996 RMK AO2
TAF
KPDK 
28nm NW 
221735Z 2218/2318 23006KT P6SM VCSH BKN035 TEMPO 2218/2220 VRB15G25KT 3SM TSRA BKN035CB FM222000 21007KT P6SM VCSH BKN045 FM230100 00000KT P6SM FEW060 SCT250 FM231100 00000KT P6SM FEW015 FM231500 25005KT P6SM VCSH SCT035
KATL 
30nm W 
222139Z 2222/2324 24007KT P6SM SCT045 BKN250 FM230100 23004KT P6SM FEW060 SCT250 FM231100 25003KT P6SM FEW015 FM231500 25006KT P6SM VCSH SCT035 FM231800 24009KT P6SM VCSH BKN045 PROB30 2318/2324 3SM TSRA BKN035CB
KAHN 
33nm NE 
221735Z 2218/2318 20006KT P6SM SCT035 FM222000 23006KT P6SM VCSH SCT045 FM230100 00000KT P6SM FEW060 SCT250 FM231500 25007KT P6SM VCSH SCT035
KFTY 
35nm W 
221735Z 2218/2318 20006KT P6SM VCSH BKN035 TEMPO 2218/2220 VRB15G25KT 3SM TSRA BKN035CB FM222000 21007KT P6SM VCSH BKN045 FM230100 00000KT P6SM FEW060 SCT250 FM231100 00000KT P6SM FEW015 FM231500 25005KT P6SM VCSH SCT035
NOTAMs
Click for the latest NOTAMs
NOTAMs are issued by the DoD/FAA and will open in a separate window not controlled by AirNav.

 

 
 

Would you like to see your business listed on this page?

 If your business provides an interesting product or service to pilots, flight crews, aircraft, or users of the Piedmont Newton Hospital Heliport, you should consider listing it here.  To start the listing process, click on the button below
 
Add a business
 

Other Pages about Piedmont Newton Hospital Heliport

Update a link
 
Copyright © AirNav, LLC. All rights reserved. Privacy Policy  Contact